createdAt,value
2018-09-26T00:05:52.465Z,6.60
2018-09-26T00:11:57.066Z,6.73
2018-09-26T00:18:01.929Z,6.61
2018-09-26T00:24:06.633Z,6.66
2018-09-26T00:30:11.451Z,6.50
2018-09-26T00:36:16.070Z,6.58
2018-09-26T00:42:21.405Z,6.47
2018-09-26T00:48:25.949Z,6.48
2018-09-26T00:54:30.535Z,6.55
2018-09-26T01:00:35.125Z,6.44
2018-09-26T01:06:39.975Z,6.46
2018-09-26T01:12:44.553Z,6.24
2018-09-26T01:18:49.467Z,6.08
2018-09-26T01:24:54.013Z,6.04
2018-09-26T01:30:58.967Z,6.25
2018-09-26T01:37:03.640Z,6.27
2018-09-26T01:43:08.217Z,6.29
2018-09-26T01:49:13.635Z,6.10
2018-09-26T01:55:18.207Z,6.10
2018-09-26T02:01:22.806Z,6.33
2018-09-26T02:07:27.425Z,6.24
2018-09-26T02:13:31.992Z,6.28
2018-09-26T02:19:36.571Z,6.40
2018-09-26T02:25:41.162Z,6.48
2018-09-26T02:31:45.702Z,6.47
2018-09-26T02:37:50.341Z,6.51
2018-09-26T02:43:54.998Z,6.49
2018-09-26T02:49:59.893Z,6.43
2018-09-26T02:56:05.083Z,6.38
2018-09-26T03:02:09.720Z,6.31
2018-09-26T03:08:14.675Z,6.26
2018-09-26T03:14:19.294Z,6.28
2018-09-26T03:20:24.165Z,6.23
2018-09-26T03:26:28.754Z,6.33
2018-09-26T03:32:33.618Z,6.27
2018-09-26T03:38:38.218Z,6.04
2018-09-26T03:44:42.751Z,5.99
2018-09-26T03:50:47.347Z,5.97
2018-09-26T03:56:51.910Z,5.87
2018-09-26T04:02:56.538Z,5.71
2018-09-26T04:09:01.074Z,5.93
2018-09-26T04:15:05.772Z,5.80
2018-09-26T04:21:10.400Z,5.62
2018-09-26T04:27:15.051Z,5.70
2018-09-26T04:33:20.056Z,5.81
2018-09-26T04:39:24.394Z,5.87
2018-09-26T04:45:29.828Z,5.83
2018-09-26T04:51:34.765Z,5.76
2018-09-26T04:57:39.746Z,5.74
2018-09-26T05:03:44.697Z,5.57
2018-09-26T05:09:49.295Z,5.72
2018-09-26T05:15:53.856Z,5.56
2018-09-26T05:21:59.064Z,5.65
2018-09-26T05:28:03.926Z,5.69
2018-09-26T05:34:08.537Z,5.84
2018-09-26T05:40:13.086Z,5.94
2018-09-26T05:46:17.674Z,6.16
2018-09-26T05:52:22.243Z,6.05
2018-09-26T05:58:26.793Z,6.45
2018-09-26T06:04:31.359Z,6.57
2018-09-26T06:10:35.919Z,6.72
2018-09-26T06:16:40.809Z,7.08
2018-09-26T06:22:45.728Z,7.68
2018-09-26T06:28:50.270Z,8.07
2018-09-26T06:34:54.850Z,8.26
2018-09-26T06:40:59.770Z,8.33
2018-09-26T06:47:05.197Z,8.66
2018-09-26T06:53:09.744Z,8.77
2018-09-26T06:59:14.712Z,9.50
2018-09-26T07:05:19.601Z,10.63
2018-09-26T07:11:24.168Z,10.61
2018-09-26T07:17:28.753Z,11.81
2018-09-26T07:23:33.378Z,11.82
2018-09-26T07:29:37.950Z,11.37
2018-09-26T07:35:42.588Z,11.34
2018-09-26T07:41:47.106Z,11.32
2018-09-26T07:47:51.698Z,11.33
2018-09-26T07:53:56.598Z,11.57
2018-09-26T08:00:01.282Z,11.75
2018-09-26T08:06:07.590Z,11.82
2018-09-26T08:12:12.162Z,11.88
2018-09-26T08:18:16.848Z,12.08
2018-09-26T08:24:22.673Z,12.19
2018-09-26T08:30:27.543Z,12.62
2018-09-26T08:36:32.153Z,13.08
2018-09-26T08:42:37.048Z,13.50
2018-09-26T08:48:41.615Z,13.80
2018-09-26T08:54:46.514Z,14.76
2018-09-26T09:00:54.855Z,15.35
2018-09-26T09:07:00.124Z,16.02
2018-09-26T09:13:04.705Z,17.64
2018-09-26T09:19:09.318Z,18.62
2018-09-26T09:25:13.900Z,18.13
2018-09-26T09:31:18.504Z,17.66
2018-09-26T09:37:23.089Z,18.10
2018-09-26T09:43:27.685Z,18.79
2018-09-26T09:49:32.279Z,18.30
2018-09-26T09:55:36.825Z,19.09
2018-09-26T10:01:41.397Z,19.67
2018-09-26T10:07:45.961Z,19.89
2018-09-26T10:13:50.580Z,20.73
2018-09-26T10:19:55.169Z,21.16
2018-09-26T10:25:59.745Z,19.14
2018-09-26T10:32:04.320Z,18.42
2018-09-26T10:38:08.987Z,17.77
2018-09-26T10:44:13.876Z,18.03
2018-09-26T10:50:18.412Z,18.10
2018-09-26T10:56:23.104Z,18.36
2018-09-26T11:02:27.638Z,19.07
2018-09-26T11:08:32.200Z,19.19
2018-09-26T11:14:37.104Z,18.68
2018-09-26T11:20:41.692Z,19.03
2018-09-26T11:26:46.282Z,20.66
2018-09-26T11:32:50.877Z,20.94
2018-09-26T11:38:55.849Z,21.04
2018-09-26T11:45:00.766Z,21.97
2018-09-26T11:51:05.399Z,21.85
2018-09-26T11:57:10.274Z,21.97
2018-09-26T12:03:17.600Z,21.48
2018-09-26T12:09:22.447Z,20.76
2018-09-26T12:15:27.284Z,21.39
2018-09-26T12:21:31.849Z,22.22
2018-09-26T12:27:36.442Z,22.03
2018-09-26T12:33:41.036Z,22.27
2018-09-26T12:39:46.606Z,22.35
2018-09-26T12:45:51.205Z,23.25
2018-09-26T12:51:55.758Z,23.60
2018-09-26T12:58:00.313Z,22.89
2018-09-26T13:04:04.907Z,22.36
2018-09-26T13:10:09.579Z,22.67
2018-09-26T13:16:14.182Z,22.96
2018-09-26T13:22:19.252Z,24.78
2018-09-26T13:28:24.167Z,25.04
2018-09-26T13:34:28.950Z,26.35
2018-09-26T13:40:33.497Z,24.46
2018-09-26T13:46:38.160Z,25.48
2018-09-26T13:52:42.637Z,26.92
2018-09-26T13:58:47.504Z,27.16
2018-09-26T14:04:52.056Z,27.25
2018-09-26T14:10:56.939Z,27.46
2018-09-26T14:17:01.545Z,27.10
2018-09-26T14:23:06.205Z,26.62
2018-09-26T14:29:10.930Z,26.22
2018-09-26T14:35:16.002Z,25.85
2018-09-26T14:41:20.612Z,25.53
2018-09-26T14:47:25.246Z,26.55
2018-09-26T14:53:29.818Z,25.27
2018-09-26T14:59:34.491Z,25.67
2018-09-26T15:05:39.084Z,25.43
2018-09-26T15:11:43.930Z,25.12
2018-09-26T15:17:48.526Z,25.84
2018-09-26T15:23:53.397Z,24.82
2018-09-26T15:29:57.977Z,24.41
2018-09-26T15:36:02.623Z,25.12
2018-09-26T15:42:07.574Z,25.47
2018-09-26T15:48:12.492Z,25.94
2018-09-26T15:54:17.033Z,26.71
2018-09-26T16:00:21.653Z,27.62
2018-09-26T16:06:26.189Z,24.90
2018-09-26T16:12:30.777Z,23.62
2018-09-26T16:18:35.647Z,22.88
2018-09-26T16:24:40.242Z,21.86
2018-09-26T16:30:45.427Z,23.24
2018-09-26T16:36:49.980Z,24.65
2018-09-26T16:42:54.858Z,24.87
2018-09-26T16:48:59.461Z,24.45
2018-09-26T16:55:04.445Z,21.51
2018-09-26T17:01:09.002Z,19.58
2018-09-26T17:07:13.614Z,18.26
2018-09-26T17:13:19.036Z,17.07
2018-09-26T17:19:23.723Z,16.04
2018-09-26T17:25:28.287Z,15.60
2018-09-26T17:31:32.848Z,15.19
2018-09-26T17:37:37.784Z,14.81
2018-09-26T17:43:42.703Z,14.45
2018-09-26T17:49:47.309Z,14.46
2018-09-26T17:55:52.270Z,14.30
2018-09-26T18:01:56.843Z,13.94
2018-09-26T18:08:01.424Z,13.91
2018-09-26T18:14:07.082Z,13.92
2018-09-26T18:20:12.026Z,13.89
2018-09-26T18:26:16.602Z,13.84
2018-09-26T18:32:21.497Z,13.43
2018-09-26T18:38:26.464Z,13.43
2018-09-26T18:44:31.395Z,13.41
2018-09-26T18:50:36.293Z,13.31
2018-09-26T18:56:40.877Z,13.41
2018-09-26T19:02:45.824Z,13.36
2018-09-26T19:08:50.391Z,13.58
2018-09-26T19:14:55.601Z,13.58
2018-09-26T19:21:00.276Z,13.83
2018-09-26T19:27:05.064Z,13.76
2018-09-26T19:33:09.764Z,13.86
2018-09-26T19:39:14.274Z,13.76
2018-09-26T19:45:18.850Z,13.89
2018-09-26T19:51:23.400Z,13.91
2018-09-26T19:57:27.944Z,13.82
2018-09-26T20:03:32.482Z,13.83
2018-09-26T20:09:37.330Z,13.86
2018-09-26T20:15:41.879Z,13.90
2018-09-26T20:21:47.338Z,13.93
2018-09-26T20:27:51.927Z,13.89
2018-09-26T20:33:56.830Z,13.89
2018-09-26T20:40:01.630Z,13.90
2018-09-26T20:46:06.411Z,13.95
2018-09-26T20:52:10.997Z,13.89
2018-09-26T20:58:15.627Z,13.41
2018-09-26T21:04:20.181Z,13.18
2018-09-26T21:10:24.803Z,13.02
2018-09-26T21:16:29.408Z,13.06
2018-09-26T21:22:34.286Z,12.92
2018-09-26T21:28:39.139Z,12.74
2018-09-26T21:34:43.699Z,12.60
2018-09-26T21:40:48.653Z,12.56
2018-09-26T21:46:53.578Z,12.36
2018-09-26T21:52:58.169Z,12.29
2018-09-26T21:59:03.128Z,12.23
2018-09-26T22:05:07.804Z,12.22
2018-09-26T22:11:12.346Z,12.30
2018-09-26T22:17:17.232Z,12.15
2018-09-26T22:23:22.125Z,12.00
2018-09-26T22:29:27.097Z,12.15
2018-09-26T22:35:31.677Z,11.90
2018-09-26T22:41:36.352Z,11.87
2018-09-26T22:47:40.931Z,11.98
2018-09-26T22:53:45.526Z,12.11
2018-09-26T22:59:50.072Z,12.00
2018-09-26T23:05:54.974Z,11.86
2018-09-26T23:11:59.528Z,11.87
2018-09-26T23:18:04.465Z,11.82
2018-09-26T23:24:09.459Z,11.88
2018-09-26T23:30:14.059Z,11.91
2018-09-26T23:36:18.642Z,11.89
2018-09-26T23:42:23.185Z,11.88
2018-09-26T23:48:27.739Z,11.94
2018-09-26T23:54:32.698Z,12.03
